createdAt,value
2023-05-14T00:00:44.676Z,8.45
2023-05-14T00:03:11.711Z,8.35
2023-05-14T00:05:38.453Z,8.15
2023-05-14T00:08:05.264Z,8.43
2023-05-14T00:10:31.802Z,9.15
2023-05-14T00:12:58.427Z,8.40
2023-05-14T00:15:24.907Z,8.23
2023-05-14T00:17:51.464Z,8.88
2023-05-14T00:20:18.044Z,7.63
2023-05-14T00:22:44.640Z,8.68
2023-05-14T00:25:11.181Z,8.82
2023-05-14T00:27:37.924Z,9.35
2023-05-14T00:30:06.977Z,8.68
2023-05-14T00:35:00.376Z,8.27
2023-05-14T00:37:26.868Z,8.05
2023-05-14T00:39:53.325Z,8.40
2023-05-14T00:42:19.879Z,7.78
2023-05-14T00:44:46.315Z,8.43
2023-05-14T00:47:13.271Z,8.48
2023-05-14T00:49:40.889Z,8.20
2023-05-14T00:52:07.797Z,8.20
2023-05-14T00:54:36.410Z,8.55
2023-05-14T00:57:04.741Z,8.75
2023-05-14T00:59:31.436Z,8.40
2023-05-14T01:01:58.116Z,7.80
2023-05-14T01:04:24.849Z,7.93
2023-05-14T01:07:29.737Z,7.85
2023-05-14T01:10:08.529Z,8.10
2023-05-14T01:12:47.729Z,7.97
2023-05-14T01:15:17.182Z,8.60
2023-05-14T01:17:48.726Z,7.95
2023-05-14T01:20:15.616Z,8.38
2023-05-14T01:22:42.625Z,8.32
2023-05-14T01:25:09.565Z,7.55
2023-05-14T01:27:42.737Z,8.13
2023-05-14T01:30:27.412Z,7.78
2023-05-14T01:32:58.251Z,8.25
2023-05-14T01:35:28.697Z,8.20
2023-05-14T01:38:03.752Z,8.25
2023-05-14T01:40:32.791Z,8.13
2023-05-14T01:45:26.272Z,7.82
2023-05-14T01:47:52.891Z,7.60
2023-05-14T01:50:19.665Z,8.00
2023-05-14T01:52:48.274Z,8.10
2023-05-14T01:55:15.969Z,8.75
2023-05-14T01:57:42.437Z,8.13
2023-05-14T02:00:09.415Z,8.57
2023-05-14T02:02:36.112Z,8.13
2023-05-14T02:05:03.907Z,8.43
2023-05-14T02:07:32.064Z,8.38
2023-05-14T02:09:58.620Z,8.80
2023-05-14T02:12:25.092Z,8.40
2023-05-14T02:14:51.799Z,8.02
2023-05-14T02:17:18.544Z,8.25
2023-05-14T02:19:45.221Z,8.35
2023-05-14T02:22:12.092Z,8.63
2023-05-14T02:24:38.880Z,8.68
2023-05-14T02:27:06.272Z,8.75
2023-05-14T02:29:32.737Z,8.40
2023-05-14T02:31:59.250Z,7.78
2023-05-14T02:34:25.974Z,8.32
2023-05-14T02:36:52.506Z,8.73
2023-05-14T02:39:19.011Z,8.25
2023-05-14T02:41:45.573Z,8.68
2023-05-14T02:44:12.234Z,8.32
2023-05-14T02:46:38.747Z,8.52
2023-05-14T02:49:05.321Z,8.23
2023-05-14T02:51:31.771Z,8.48
2023-05-14T02:53:58.322Z,8.93
2023-05-14T02:56:24.961Z,7.65
2023-05-14T02:58:51.481Z,8.27
2023-05-14T03:01:18.853Z,7.93
2023-05-14T03:03:45.838Z,8.75
2023-05-14T03:06:12.738Z,8.48
2023-05-14T03:08:39.226Z,8.10
2023-05-14T03:11:06.882Z,8.20
2023-05-14T03:13:33.356Z,8.43
2023-05-14T03:15:59.850Z,8.02
2023-05-14T03:18:28.308Z,8.38
2023-05-14T03:20:54.856Z,8.65
2023-05-14T03:23:21.321Z,8.15
2023-05-14T03:25:47.836Z,8.57
2023-05-14T03:28:14.348Z,8.52
2023-05-14T03:30:40.969Z,8.38
2023-05-14T03:33:07.647Z,8.70
2023-05-14T03:35:34.264Z,8.95
2023-05-14T03:38:00.797Z,8.75
2023-05-14T03:40:29.528Z,8.88
2023-05-14T03:42:56.176Z,8.27
2023-05-14T03:45:22.713Z,8.35
2023-05-14T03:47:49.224Z,8.90
2023-05-14T03:50:15.914Z,8.98
2023-05-14T03:52:42.405Z,8.15
2023-05-14T03:55:09.381Z,7.97
2023-05-14T03:57:36.729Z,8.52
2023-05-14T04:00:04.612Z,8.20
2023-05-14T04:02:31.206Z,8.45
2023-05-14T04:04:57.779Z,8.43
2023-05-14T04:07:24.372Z,7.93
2023-05-14T04:09:50.803Z,8.02
2023-05-14T04:12:17.307Z,8.63
2023-05-14T04:14:43.801Z,7.95
2023-05-14T04:17:10.245Z,7.63
2023-05-14T04:19:36.776Z,7.22
2023-05-14T04:22:03.437Z,7.55
2023-05-14T04:24:29.885Z,7.60
2023-05-14T04:26:56.339Z,7.85
2023-05-14T04:29:22.863Z,7.38
2023-05-14T04:31:50.178Z,7.40
2023-05-14T04:34:16.656Z,7.45
2023-05-14T04:36:43.250Z,7.55
2023-05-14T04:39:09.948Z,7.32
2023-05-14T04:41:36.864Z,7.63
2023-05-14T04:44:03.959Z,7.15
2023-05-14T04:46:30.561Z,7.35
2023-05-14T04:48:57.678Z,6.82
2023-05-14T04:51:24.450Z,7.05
2023-05-14T04:53:50.979Z,6.68
2023-05-14T04:56:17.542Z,7.20
2023-05-14T04:58:44.032Z,6.78
2023-05-14T05:01:10.572Z,7.45
2023-05-14T05:03:37.192Z,6.90
2023-05-14T05:06:03.822Z,6.80
2023-05-14T05:08:30.815Z,6.93
2023-05-14T05:10:57.235Z,6.72
2023-05-14T05:13:23.719Z,6.30
2023-05-14T05:15:51.132Z,7.68
2023-05-14T05:18:17.790Z,6.70
2023-05-14T05:20:44.325Z,6.57
2023-05-14T05:23:10.946Z,6.93
2023-05-14T05:25:37.450Z,6.80
2023-05-14T05:28:04.128Z,6.78
2023-05-14T05:30:30.806Z,6.50
2023-05-14T05:32:57.725Z,6.68
2023-05-14T05:35:24.594Z,6.90
2023-05-14T05:37:51.093Z,6.28
2023-05-14T05:40:17.823Z,6.72
2023-05-14T05:42:44.630Z,6.80
2023-05-14T05:45:11.307Z,6.43
2023-05-14T05:47:37.814Z,6.53
2023-05-14T05:50:04.686Z,6.75
2023-05-14T05:52:31.244Z,6.82
2023-05-14T05:54:58.143Z,7.00
2023-05-14T05:57:27.076Z,6.35
2023-05-14T05:59:53.660Z,6.82
2023-05-14T06:02:20.371Z,6.18
2023-05-14T06:04:46.889Z,6.95
2023-05-14T06:07:13.348Z,6.22
2023-05-14T06:09:39.851Z,6.72
2023-05-14T06:12:06.784Z,6.72
2023-05-14T06:14:33.548Z,6.00
2023-05-14T06:17:00.273Z,6.63
2023-05-14T06:19:26.946Z,6.47
2023-05-14T06:21:53.439Z,6.97
2023-05-14T06:24:20.390Z,6.55
2023-05-14T06:26:48.790Z,6.00
2023-05-14T06:29:15.346Z,6.68
2023-05-14T06:31:42.129Z,5.90
2023-05-14T06:34:09.181Z,6.60
2023-05-14T06:36:35.654Z,6.43
2023-05-14T06:39:02.151Z,6.30
2023-05-14T06:41:29.551Z,6.07
2023-05-14T06:43:56.022Z,5.78
2023-05-14T06:46:22.504Z,6.32
2023-05-14T06:48:49.122Z,5.80
2023-05-14T06:51:15.738Z,6.55
2023-05-14T06:53:42.243Z,5.53
2023-05-14T06:56:08.709Z,5.55
2023-05-14T06:58:35.396Z,5.78
2023-05-14T07:01:01.966Z,6.13
2023-05-14T07:03:29.224Z,5.90
2023-05-14T07:05:55.754Z,6.78
2023-05-14T07:08:22.198Z,6.15
2023-05-14T07:10:48.679Z,5.90
2023-05-14T07:13:15.169Z,6.00
2023-05-14T07:15:41.672Z,6.28
2023-05-14T07:18:08.767Z,5.68
2023-05-14T07:20:35.327Z,5.65
2023-05-14T07:23:01.934Z,5.70
2023-05-14T07:25:28.482Z,5.85
2023-05-14T07:27:55.228Z,5.57
2023-05-14T07:30:26.702Z,5.72
2023-05-14T07:32:53.352Z,5.85
2023-05-14T07:35:19.998Z,5.40
2023-05-14T07:37:46.554Z,5.25
2023-05-14T07:40:13.353Z,5.75
2023-05-14T07:42:39.853Z,5.90
2023-05-14T07:45:06.928Z,5.95
2023-05-14T07:47:33.769Z,6.13
2023-05-14T07:50:00.379Z,5.57
2023-05-14T07:52:26.892Z,5.40
2023-05-14T07:54:53.480Z,5.50
2023-05-14T07:57:20.188Z,6.28
2023-05-14T07:59:47.765Z,5.70
2023-05-14T08:02:16.084Z,5.50
2023-05-14T08:04:42.812Z,5.70
2023-05-14T08:07:09.358Z,5.57
2023-05-14T08:09:35.949Z,5.57
2023-05-14T08:12:02.508Z,5.75
2023-05-14T08:14:29.089Z,6.85
2023-05-14T08:16:55.836Z,6.10
2023-05-14T08:19:24.089Z,5.70
2023-05-14T08:21:51.375Z,5.63
2023-05-14T08:24:18.973Z,5.75
2023-05-14T08:26:45.518Z,5.70
2023-05-14T08:29:13.426Z,5.63
2023-05-14T08:31:42.278Z,5.80
2023-05-14T08:34:08.863Z,5.18
2023-05-14T08:36:35.531Z,5.13
2023-05-14T08:39:02.047Z,5.75
2023-05-14T08:41:28.958Z,5.38
2023-05-14T08:44:12.029Z,4.85
2023-05-14T08:46:39.879Z,4.95
2023-05-14T08:49:32.412Z,5.28
2023-05-14T08:52:00.177Z,4.97
2023-05-14T08:54:28.710Z,4.97
2023-05-14T09:01:51.938Z,4.50
2023-05-14T09:04:24.334Z,4.45
2023-05-14T09:06:53.476Z,5.05
2023-05-14T09:09:24.348Z,4.35
2023-05-14T09:11:52.416Z,3.95
2023-05-14T09:14:19.360Z,4.13
2023-05-14T09:16:48.142Z,4.07
2023-05-14T09:19:15.879Z,4.18
2023-05-14T09:21:44.588Z,3.80
2023-05-14T09:24:19.380Z,4.32
2023-05-14T09:26:51.713Z,4.10
2023-05-14T09:29:18.420Z,4.28
2023-05-14T09:31:45.273Z,4.25
2023-05-14T09:34:12.349Z,3.97
2023-05-14T09:36:38.864Z,4.03
2023-05-14T09:39:05.724Z,3.75
2023-05-14T09:41:32.292Z,4.45
2023-05-14T09:43:58.769Z,4.45
2023-05-14T09:46:30.051Z,4.10
2023-05-14T09:48:56.902Z,4.03
2023-05-14T09:51:23.930Z,4.10
2023-05-14T09:53:53.416Z,4.43
2023-05-14T09:56:21.643Z,4.05
2023-05-14T09:58:48.637Z,4.10
2023-05-14T10:01:18.904Z,4.05
2023-05-14T10:03:46.244Z,3.88
2023-05-14T10:06:15.082Z,3.78
2023-05-14T10:08:44.823Z,4.20
2023-05-14T10:11:22.337Z,3.55
2023-05-14T10:13:59.847Z,3.92
2023-05-14T10:16:34.060Z,4.45
2023-05-14T10:19:14.932Z,4.13
2023-05-14T10:21:47.376Z,3.72
2023-05-14T10:24:14.803Z,4.15
2023-05-14T10:26:42.166Z,4.03
2023-05-14T10:29:12.768Z,4.18
2023-05-14T10:31:49.727Z,3.70
2023-05-14T10:34:40.814Z,3.80
2023-05-14T10:37:24.728Z,3.88
2023-05-14T10:39:58.991Z,4.10
2023-05-14T10:42:32.493Z,4.40
2023-05-14T10:45:12.611Z,4.13
2023-05-14T10:47:42.531Z,3.67
2023-05-14T10:50:11.348Z,3.83
2023-05-14T10:52:38.188Z,3.92
2023-05-14T10:55:10.072Z,3.72
2023-05-14T10:57:39.857Z,3.42
2023-05-14T11:00:10.724Z,3.92
2023-05-14T11:02:43.124Z,3.95
2023-05-14T11:05:17.706Z,3.97
2023-05-14T11:07:45.512Z,3.33
2023-05-14T11:10:14.752Z,3.72
2023-05-14T11:12:43.683Z,3.20
2023-05-14T11:15:12.671Z,4.07
2023-05-14T11:17:41.569Z,3.88
2023-05-14T11:20:09.476Z,4.05
2023-05-14T11:22:37.670Z,3.83
2023-05-14T11:25:05.035Z,3.90
2023-05-14T11:27:34.009Z,3.40
2023-05-14T11:30:03.957Z,3.42
2023-05-14T11:32:32.902Z,3.80
2023-05-14T11:34:59.371Z,3.95
2023-05-14T11:37:26.144Z,3.55
2023-05-14T11:39:55.151Z,3.83
2023-05-14T11:42:22.569Z,3.80
2023-05-14T11:44:51.935Z,3.65
2023-05-14T11:47:19.917Z,3.50
2023-05-14T11:49:47.233Z,3.53
2023-05-14T11:52:15.080Z,4.00
2023-05-14T11:54:43.205Z,3.17
2023-05-14T11:57:12.577Z,3.35
2023-05-14T11:59:39.438Z,3.13
2023-05-14T12:02:12.477Z,3.33
2023-05-14T12:04:39.771Z,3.45
2023-05-14T12:07:15.255Z,3.65
2023-05-14T12:09:49.682Z,3.35
2023-05-14T12:12:22.019Z,3.35
2023-05-14T12:14:49.891Z,3.35
2023-05-14T12:17:23.353Z,3.05
2023-05-14T12:19:51.747Z,3.53
2023-05-14T12:24:56.599Z,2.85
2023-05-14T12:27:24.613Z,2.88
2023-05-14T12:30:19.072Z,2.80
2023-05-14T12:32:46.361Z,3.38
2023-05-14T12:35:12.862Z,3.08
2023-05-14T12:37:40.051Z,3.03
2023-05-14T12:40:09.628Z,2.88
2023-05-14T12:42:36.523Z,3.70
2023-05-14T12:45:06.963Z,3.20
2023-05-14T12:47:33.558Z,3.00
2023-05-14T12:50:00.195Z,3.03
2023-05-14T12:52:37.698Z,3.10
2023-05-14T12:55:06.504Z,3.17
2023-05-14T12:57:35.382Z,3.75
2023-05-14T13:00:02.494Z,2.78
2023-05-14T13:02:29.076Z,2.85
2023-05-14T13:04:55.657Z,2.92
2023-05-14T13:07:22.288Z,2.85
2023-05-14T13:09:48.782Z,3.47
2023-05-14T13:12:15.568Z,3.10
2023-05-14T13:14:42.167Z,3.15
2023-05-14T13:17:08.733Z,2.88
2023-05-14T13:19:35.398Z,3.38
2023-05-14T13:22:01.949Z,3.35
2023-05-14T13:24:28.448Z,2.83
2023-05-14T13:26:54.931Z,3.42
2023-05-14T13:29:21.425Z,3.13
2023-05-14T13:31:47.976Z,3.15
2023-05-14T13:34:14.695Z,3.17
2023-05-14T13:36:43.484Z,3.00
2023-05-14T13:39:14.606Z,3.20
2023-05-14T13:41:41.525Z,2.92
2023-05-14T13:44:08.000Z,3.33
2023-05-14T13:46:34.971Z,3.08
2023-05-14T13:49:01.590Z,3.38
2023-05-14T13:51:28.079Z,3.08
2023-05-14T13:56:26.135Z,3.50
2023-05-14T13:58:52.824Z,2.95
2023-05-14T14:01:19.469Z,4.03
2023-05-14T14:03:46.002Z,3.88
2023-05-14T14:06:12.593Z,3.25
2023-05-14T14:08:39.089Z,3.08
2023-05-14T14:11:05.840Z,3.38
2023-05-14T14:13:32.284Z,3.20
2023-05-14T14:15:58.927Z,3.65
2023-05-14T14:18:25.761Z,2.95
2023-05-14T14:20:52.546Z,2.97
2023-05-14T14:23:19.684Z,2.72
2023-05-14T14:25:46.273Z,2.92
2023-05-14T14:28:12.904Z,3.03
2023-05-14T14:30:39.436Z,3.25
2023-05-14T14:33:06.063Z,3.03
2023-05-14T14:35:33.405Z,3.22
2023-05-14T14:37:59.872Z,2.88
2023-05-14T14:40:26.395Z,3.40
2023-05-14T14:42:52.896Z,3.25
2023-05-14T14:45:19.389Z,2.92
2023-05-14T14:47:46.794Z,3.10
2023-05-14T14:50:13.604Z,3.10
2023-05-14T14:52:45.416Z,3.33
2023-05-14T14:55:12.517Z,3.28
2023-05-14T14:57:39.053Z,2.97
2023-05-14T15:00:06.883Z,3.95
2023-05-14T15:02:33.668Z,2.83
2023-05-14T15:05:00.341Z,2.97
2023-05-14T15:07:26.819Z,2.63
2023-05-14T15:09:53.263Z,3.13
2023-05-14T15:12:19.804Z,3.10
2023-05-14T15:14:46.236Z,3.38
2023-05-14T15:17:12.722Z,3.50
2023-05-14T15:19:39.169Z,2.88
2023-05-14T15:22:05.727Z,2.85
2023-05-14T15:24:32.225Z,3.08
2023-05-14T15:26:58.704Z,2.88
2023-05-14T15:29:25.289Z,2.67
2023-05-14T15:31:51.875Z,2.72
2023-05-14T15:34:18.458Z,2.80
2023-05-14T15:36:44.934Z,2.80
2023-05-14T15:39:11.530Z,3.03
2023-05-14T15:41:38.030Z,2.58
2023-05-14T15:44:04.753Z,3.08
2023-05-14T15:46:31.377Z,3.05
2023-05-14T15:48:58.635Z,3.05
2023-05-14T15:51:25.160Z,3.60
2023-05-14T15:53:54.067Z,2.92
2023-05-14T15:56:22.454Z,2.90
2023-05-14T15:58:49.710Z,3.13
2023-05-14T16:01:16.271Z,3.10
2023-05-14T16:03:42.938Z,2.97
2023-05-14T16:06:11.580Z,3.10
2023-05-14T16:08:38.324Z,3.25
2023-05-14T16:11:05.520Z,3.30
2023-05-14T16:13:32.127Z,3.50
2023-05-14T16:15:59.534Z,3.45
2023-05-14T16:18:26.377Z,3.58
2023-05-14T16:20:53.521Z,3.95
2023-05-14T16:23:20.009Z,3.33
2023-05-14T16:25:46.566Z,3.85
2023-05-14T16:28:13.572Z,4.10
2023-05-14T16:30:40.106Z,3.42
2023-05-14T16:33:06.841Z,3.63
2023-05-14T16:35:33.971Z,3.42
2023-05-14T16:38:00.600Z,3.08
2023-05-14T16:40:27.146Z,3.47
2023-05-14T16:42:53.690Z,4.38
2023-05-14T16:45:20.262Z,3.17
2023-05-14T16:47:46.756Z,3.70
2023-05-14T16:50:13.325Z,3.42
2023-05-14T16:52:39.968Z,3.30
2023-05-14T16:55:06.758Z,3.70
2023-05-14T16:57:34.211Z,3.17
2023-05-14T17:00:00.809Z,3.38
2023-05-14T17:02:27.297Z,3.53
2023-05-14T17:04:55.281Z,3.92
2023-05-14T17:07:21.860Z,3.60
2023-05-14T17:09:48.711Z,3.63
2023-05-14T17:12:15.364Z,3.38
2023-05-14T17:14:41.997Z,3.30
2023-05-14T17:17:08.538Z,4.32
2023-05-14T17:19:35.111Z,4.10
2023-05-14T17:22:01.647Z,3.47
2023-05-14T17:24:28.295Z,4.40
2023-05-14T17:26:54.725Z,4.80
2023-05-14T17:29:23.417Z,4.32
2023-05-14T17:31:51.154Z,4.32
2023-05-14T17:34:17.766Z,5.63
2023-05-14T17:36:44.345Z,5.13
2023-05-14T17:39:10.854Z,6.25
2023-05-14T17:41:37.470Z,6.00
2023-05-14T17:44:04.104Z,5.18
2023-05-14T17:46:30.779Z,5.45
2023-05-14T17:48:58.321Z,4.88
2023-05-14T17:51:25.238Z,4.65
2023-05-14T17:53:51.719Z,4.85
2023-05-14T17:56:18.823Z,5.38
2023-05-14T17:58:45.975Z,5.07
2023-05-14T18:01:12.760Z,4.82
2023-05-14T18:03:39.334Z,4.68
2023-05-14T18:06:06.102Z,4.85
2023-05-14T18:08:32.580Z,4.43
2023-05-14T18:11:00.734Z,5.30
2023-05-14T18:13:27.204Z,4.88
2023-05-14T18:15:54.389Z,5.30
2023-05-14T18:18:21.707Z,4.40
2023-05-14T18:20:49.389Z,4.50
2023-05-14T18:23:16.042Z,3.80
2023-05-14T18:25:42.811Z,4.13
2023-05-14T18:28:09.621Z,4.07
2023-05-14T18:30:36.205Z,3.95
2023-05-14T18:33:03.966Z,4.10
2023-05-14T18:35:30.884Z,4.32
2023-05-14T18:37:57.429Z,4.15
2023-05-14T18:40:23.964Z,3.88
2023-05-14T18:42:50.648Z,3.80
2023-05-14T18:45:17.183Z,3.85
2023-05-14T18:47:43.800Z,4.03
2023-05-14T18:50:10.523Z,3.85
2023-05-14T18:52:37.054Z,3.75
2023-05-14T18:55:03.892Z,4.03
2023-05-14T18:57:32.181Z,3.78
2023-05-14T19:00:03.877Z,4.43
2023-05-14T19:02:30.862Z,4.53
2023-05-14T19:04:57.454Z,4.13
2023-05-14T19:07:23.937Z,3.85
2023-05-14T19:09:50.687Z,4.13
2023-05-14T19:12:17.217Z,3.95
2023-05-14T19:14:43.718Z,4.38
2023-05-14T19:17:10.376Z,4.50
2023-05-14T19:19:37.853Z,5.20
2023-05-14T19:22:04.750Z,4.65
2023-05-14T19:24:31.182Z,5.43
2023-05-14T19:26:57.803Z,4.70
2023-05-14T19:29:24.876Z,4.68
2023-05-14T19:31:51.345Z,4.78
2023-05-14T19:34:17.867Z,4.97
2023-05-14T19:36:44.496Z,5.10
2023-05-14T19:39:11.191Z,4.22
2023-05-14T19:41:37.786Z,4.43
2023-05-14T19:44:04.290Z,5.13
2023-05-14T19:46:30.891Z,4.75
2023-05-14T19:48:57.380Z,4.70
2023-05-14T19:51:23.894Z,5.47
2023-05-14T19:53:50.495Z,5.25
2023-05-14T19:56:17.131Z,4.45
2023-05-14T19:58:44.465Z,4.93
2023-05-14T20:01:12.015Z,4.70
2023-05-14T20:03:38.984Z,4.97
2023-05-14T20:06:07.002Z,5.22
2023-05-14T20:08:33.651Z,5.20
2023-05-14T20:11:00.246Z,5.45
2023-05-14T20:13:26.750Z,5.72
2023-05-14T20:15:55.015Z,5.55
2023-05-14T20:18:21.875Z,5.55
2023-05-14T20:20:49.170Z,5.40
2023-05-14T20:23:15.942Z,6.22
2023-05-14T20:25:43.107Z,6.03
2023-05-14T20:28:10.337Z,6.45
2023-05-14T20:30:37.075Z,6.00
2023-05-14T20:33:04.038Z,5.72
2023-05-14T20:35:31.085Z,5.82
2023-05-14T20:37:57.552Z,5.65
2023-05-14T20:40:24.716Z,5.93
2023-05-14T20:42:51.718Z,5.95
2023-05-14T20:45:18.353Z,6.55
2023-05-14T20:47:44.964Z,6.00
2023-05-14T20:50:11.768Z,5.65
2023-05-14T20:52:38.251Z,5.60
2023-05-14T20:55:05.192Z,5.95
2023-05-14T20:57:31.817Z,5.35
2023-05-14T20:59:58.307Z,5.32
2023-05-14T21:02:25.102Z,5.28
2023-05-14T21:04:52.325Z,5.07
2023-05-14T21:07:18.860Z,5.55
2023-05-14T21:09:50.718Z,5.10
2023-05-14T21:12:17.242Z,5.47
2023-05-14T21:14:43.720Z,5.82
2023-05-14T21:17:10.633Z,5.40
2023-05-14T21:19:37.257Z,5.03
2023-05-14T21:22:03.752Z,5.65
2023-05-14T21:24:30.258Z,5.32
2023-05-14T21:26:56.783Z,6.15
2023-05-14T21:29:25.304Z,5.55
2023-05-14T21:31:51.858Z,5.55
2023-05-14T21:34:18.330Z,5.65
2023-05-14T21:36:44.811Z,5.70
2023-05-14T21:39:11.405Z,6.15
2023-05-14T21:41:37.861Z,5.75
2023-05-14T21:44:04.384Z,5.47
2023-05-14T21:46:31.308Z,5.95
2023-05-14T21:48:57.849Z,5.85
2023-05-14T21:51:24.523Z,6.72
2023-05-14T21:53:51.063Z,5.63
2023-05-14T21:56:17.614Z,5.90
2023-05-14T21:58:44.990Z,5.88
2023-05-14T22:01:11.541Z,5.55
2023-05-14T22:03:38.324Z,5.72
2023-05-14T22:06:05.396Z,5.70
2023-05-14T22:08:32.232Z,6.35
2023-05-14T22:10:58.789Z,5.97
2023-05-14T22:13:25.300Z,6.22
2023-05-14T22:16:01.193Z,6.22
2023-05-14T22:18:36.589Z,6.13
2023-05-14T22:21:03.641Z,6.32
2023-05-14T22:23:30.246Z,5.93
2023-05-14T22:25:57.390Z,6.25
2023-05-14T22:28:24.016Z,6.35
2023-05-14T22:30:50.705Z,6.00
2023-05-14T22:33:19.143Z,6.65
2023-05-14T22:35:45.583Z,6.30
2023-05-14T22:38:12.684Z,6.47
2023-05-14T22:40:39.247Z,6.75
2023-05-14T22:43:05.713Z,6.03
2023-05-14T22:45:32.179Z,6.38
2023-05-14T22:47:58.744Z,6.38
2023-05-14T22:50:25.688Z,6.85
2023-05-14T22:52:52.205Z,6.72
2023-05-14T22:55:18.757Z,6.45
2023-05-14T22:57:45.527Z,6.68
2023-05-14T23:00:12.712Z,6.85
2023-05-14T23:02:39.388Z,6.93
2023-05-14T23:05:07.867Z,7.03
2023-05-14T23:07:35.024Z,6.85
2023-05-14T23:10:01.881Z,6.57
2023-05-14T23:12:28.350Z,7.90
2023-05-14T23:14:54.903Z,7.07
2023-05-14T23:17:21.436Z,7.03
2023-05-14T23:19:47.971Z,7.65
2023-05-14T23:22:14.459Z,7.55
2023-05-14T23:24:40.920Z,7.97
2023-05-14T23:27:07.656Z,7.85
2023-05-14T23:29:34.136Z,7.20
2023-05-14T23:32:00.691Z,7.28
2023-05-14T23:34:27.271Z,7.53
2023-05-14T23:36:53.927Z,6.82
2023-05-14T23:39:21.466Z,7.25
2023-05-14T23:41:48.052Z,6.78
2023-05-14T23:44:15.117Z,7.57
2023-05-14T23:46:41.762Z,7.63
2023-05-14T23:49:08.292Z,7.20
2023-05-14T23:51:34.792Z,7.35
2023-05-14T23:54:01.237Z,7.07
2023-05-14T23:56:29.249Z,7.38
2023-05-14T23:58:56.709Z,7.72
